Time;durP1;ratioP1;P1;durP2;ratioP2;P2;SDS_P1;SDS_P2;PMS_P1;PMS_P2;Temp;Humidity;BMP_temperature;BMP_pressure;BME280_temperature;BME280_humidity;BME280_pressure;Samples;Min_cycle;Max_cycle;Signal;HPM_P1;HPM_P2
2022/11/28 00:01:59;;;;;;;21.38;9.75;;;;;;;5.91;100.00;100811.13;5103091;28;20028;-81
2022/11/28 00:04:24;;;;;;;21.13;9.60;;;;;;;5.92;100.00;100815.50;5104831;28;20474;-81
2022/11/28 00:06:50;;;;;;;21.77;9.40;;;;;;;5.99;100.00;100810.44;5104192;27;20106;-81
2022/11/28 00:09:18;;;;;;;22.27;9.70;;;;;;;6.00;100.00;100806.94;5103726;28;20020;-81
2022/11/28 00:11:45;;;;;;;21.05;9.50;;;;;;;6.01;100.00;100813.97;5104617;28;20027;-81
2022/11/28 00:14:11;;;;;;;21.70;9.75;;;;;;;6.01;100.00;100812.22;5102532;28;20052;-80
2022/11/28 00:16:36;;;;;;;21.05;9.48;;;;;;;6.03;100.00;100805.28;5105830;28;20563;-81
2022/11/28 00:19:03;;;;;;;21.67;9.25;;;;;;;6.06;100.00;100801.84;5102251;28;20467;-81
2022/11/28 00:21:29;;;;;;;20.38;9.18;;;;;;;6.06;100.00;100796.59;5104897;28;20040;-81
2022/11/28 00:23:54;;;;;;;21.02;8.98;;;;;;;6.14;100.00;100792.38;5103451;28;20024;-81
2022/11/28 00:26:24;;;;;;;20.85;9.10;;;;;;;6.15;100.00;100796.78;5103621;28;20028;-81
2022/11/28 00:28:50;;;;;;;21.17;8.88;;;;;;;6.20;100.00;100797.75;5103887;28;20085;-81
2022/11/28 00:31:23;;;;;;;21.08;8.68;;;;;;;6.32;100.00;100801.50;5103020;28;20035;-81
2022/11/28 00:33:49;;;;;;;19.85;7.93;;;;;;;6.34;100.00;100795.44;5104325;28;20019;-81
2022/11/28 00:36:15;;;;;;;19.77;8.00;;;;;;;6.38;100.00;100792.03;5102760;28;20490;-81
2022/11/28 00:38:41;;;;;;;21.17;8.10;;;;;;;6.41;100.00;100788.59;5105466;28;20066;-81
2022/11/28 00:41:14;;;;;;;19.20;7.50;;;;;;;6.47;100.00;100793.09;5101885;28;20475;-82
2022/11/28 00:43:42;;;;;;;19.60;7.10;;;;;;;6.47;100.00;100788.72;5099118;28;20506;-81
2022/11/28 00:46:09;;;;;;;19.23;7.43;;;;;;;6.49;100.00;100802.75;5105174;28;20031;-72
2022/11/28 00:48:34;;;;;;;19.50;7.53;;;;;;;6.49;100.00;100792.25;5096502;28;20122;-71
2022/11/28 00:51:05;;;;;;;19.80;7.32;;;;;;;6.49;100.00;100780.84;5104508;28;20127;-72
2022/11/28 00:53:31;;;;;;;19.90;7.82;;;;;;;6.50;100.00;100780.00;5101938;28;20028;-72
2022/11/28 00:55:56;;;;;;;18.85;7.55;;;;;;;6.45;100.00;100786.06;5104042;28;20505;-71
2022/11/28 00:58:21;;;;;;;19.95;7.70;;;;;;;6.44;100.00;100783.41;5103127;28;20024;-73
2022/11/28 01:00:47;;;;;;;20.33;7.90;;;;;;;6.44;100.00;100778.16;5102539;28;20024;-72
2022/11/28 01:03:12;;;;;;;19.95;8.00;;;;;;;6.46;100.00;100781.69;5104612;28;20058;-72
2022/11/28 01:05:42;;;;;;;19.58;7.82;;;;;;;6.45;100.00;100777.25;5101567;28;20112;-72
2022/11/28 01:08:08;;;;;;;20.52;8.25;;;;;;;6.42;100.00;100777.22;5097723;28;20481;-72
2022/11/28 01:10:38;;;;;;;20.50;8.02;;;;;;;6.42;100.00;100786.00;5097666;28;20390;-71
2022/11/28 01:13:03;;;;;;;20.30;8.07;;;;;;;6.39;100.00;100779.78;5104689;28;20024;-72
2022/11/28 01:15:29;;;;;;;19.73;8.27;;;;;;;6.32;100.00;100777.88;5101957;28;20043;-72
2022/11/28 01:17:54;;;;;;;20.10;8.27;;;;;;;6.27;100.00;100786.53;5097143;28;20389;-72
2022/11/28 01:20:19;;;;;;;20.30;8.57;;;;;;;6.18;100.00;100775.84;5102657;28;20060;-73
2022/11/28 01:22:44;;;;;;;19.88;8.40;;;;;;;6.19;100.00;100775.00;5103046;28;20120;-71
2022/11/28 01:25:10;;;;;;;21.70;8.93;;;;;;;6.16;100.00;100780.19;5100321;28;20028;-73
2022/11/28 01:27:35;;;;;;;20.35;8.43;;;;;;;6.16;100.00;100776.66;5104790;28;20038;-81
2022/11/28 01:30:00;;;;;;;19.90;8.13;;;;;;;6.17;100.00;100771.44;5100652;28;20028;-78
2022/11/28 01:32:26;;;;;;;21.23;8.68;;;;;;;6.25;100.00;100775.13;5103403;28;20035;-80
2022/11/28 01:34:51;;;;;;;19.92;8.40;;;;;;;6.27;100.00;100786.53;5102785;28;20031;-80
2022/11/28 01:37:16;;;;;;;19.63;7.97;;;;;;;6.26;100.00;100778.63;5102412;28;20107;-81
2022/11/28 01:39:42;;;;;;;19.90;7.70;;;;;;;6.27;100.00;100778.66;5102859;28;20061;-81
2022/11/28 01:42:15;;;;;;;19.35;7.85;;;;;;;6.26;100.00;100792.66;5100964;28;20054;-81
2022/11/28 01:44:40;;;;;;;19.77;7.95;;;;;;;6.20;100.00;100781.13;5098123;28;20093;-81
2022/11/28 01:47:06;;;;;;;20.42;7.65;;;;;;;6.21;100.00;100786.41;5104772;28;20063;-81
2022/11/28 01:49:36;;;;;;;20.40;7.93;;;;;;;6.18;100.00;100778.47;5101260;28;20094;-80
2022/11/28 01:52:10;;;;;;;19.50;8.07;;;;;;;6.14;100.00;100776.63;5104868;28;20077;-81
2022/11/28 01:54:37;;;;;;;20.60;8.90;;;;;;;6.07;100.00;100783.50;5097146;28;20504;-81
2022/11/28 01:57:10;;;;;;;20.25;8.48;;;;;;;6.09;100.00;100780.91;5104296;28;20034;-82
2022/11/28 01:59:41;;;;;;;22.23;9.10;;;;;;;6.05;100.00;100779.06;5096768;28;20031;-81
2022/11/28 02:02:14;;;;;;;22.20;8.70;;;;;;;6.03;100.00;100775.50;5097236;28;20020;-82
2022/11/28 02:04:41;;;;;;;20.70;8.93;;;;;;;6.02;100.00;100768.50;5097674;28;20119;-82
2022/11/28 02:07:06;;;;;;;21.40;9.02;;;;;;;6.00;100.00;100771.09;5104517;28;20034;-82
2022/11/28 02:09:32;;;;;;;21.80;9.07;;;;;;;6.00;100.00;100771.09;5101110;28;20107;-81
2022/11/28 02:12:22;;;;;;;21.33;8.77;;;;;;;6.02;100.00;100768.50;5103399;28;20487;-81
2022/11/28 02:15:10;;;;;;;21.17;9.23;;;;;;;5.98;100.00;100764.03;5099642;28;20060;-82
2022/11/28 02:18:00;;;;;;;21.45;9.27;;;;;;;5.94;100.00;100761.31;5096655;28;20043;-82
2022/11/28 02:20:41;;;;;;;22.20;9.35;;;;;;;5.93;100.00;100759.53;5101785;28;20035;-81
2022/11/28 02:23:24;;;;;;;22.00;9.82;;;;;;;5.93;100.00;100756.03;5096911;28;20020;-81
2022/11/28 02:26:14;;;;;;;21.80;9.52;;;;;;;5.92;100.00;100756.88;5100293;28;20188;-81
2022/11/28 02:28:52;;;;;;;21.77;9.07;;;;;;;5.92;100.00;100757.75;5097349;28;20024;-81
2022/11/28 02:31:51;;;;;;;22.85;9.73;;;;;;;5.92;100.00;100757.75;5099258;28;20024;-81
2022/11/28 02:34:32;;;;;;;20.35;8.80;;;;;;;5.93;100.00;100753.41;5099940;28;20031;-81
2022/11/28 02:37:24;;;;;;;21.00;9.10;;;;;;;5.88;100.00;100753.31;5105371;28;20069;-81
2022/11/28 02:40:24;;;;;;;21.02;8.68;;;;;;;5.93;100.00;100754.28;5096034;28;20040;-81
2022/11/28 02:43:08;;;;;;;20.10;8.43;;;;;;;5.92;100.00;100762.13;5100273;28;20039;-82
2022/11/28 02:45:49;;;;;;;21.52;8.20;;;;;;;5.89;100.00;100757.69;5102991;28;20031;-80
2022/11/28 02:48:28;;;;;;;21.30;9.07;;;;;;;5.91;100.00;100763.88;5102348;28;20024;-81
2022/11/28 02:51:25;;;;;;;20.83;8.32;;;;;;;5.83;100.00;100752.31;5106235;28;20027;-81
2022/11/28 02:53:54;;;;;;;20.90;8.65;;;;;;;5.87;100.00;100758.53;5103878;28;20101;-80
2022/11/28 02:56:22;;;;;;;21.38;8.82;;;;;;;5.85;100.00;100760.22;5105163;28;20413;-80
2022/11/28 02:58:48;;;;;;;22.48;8.70;;;;;;;5.84;100.00;100748.84;5105233;28;20052;-80
2022/11/28 03:01:21;;;;;;;21.20;8.93;;;;;;;5.83;100.00;100746.22;5106805;28;20460;-80
2022/11/28 03:04:04;;;;;;;22.83;8.77;;;;;;;5.81;100.00;100742.63;5103316;28;20024;-80
2022/11/28 03:06:30;;;;;;;;;;;;;;;5.79;100.00;100737.38;5104772;28;20032;-80
2022/11/28 03:09:04;;;;;;;22.73;8.80;;;;;;;5.81;100.00;100743.53;5105854;28;19918;-72
2022/11/28 03:12:07;;;;;;;21.35;8.43;;;;;;;5.81;100.00;100738.31;5104388;28;20028;-71
2022/11/28 03:14:45;;;;;;;22.40;8.98;;;;;;;5.80;100.00;100730.41;5106461;28;20035;-71
2022/11/28 03:17:23;;;;;;;21.27;8.57;;;;;;;5.79;100.00;100733.88;5099900;28;20044;-72
2022/11/28 03:20:16;;;;;;;22.65;9.13;;;;;;;5.80;100.00;100740.88;5105880;28;20020;-71
2022/11/28 03:22:57;;;;;;;;;;;;;;;5.74;100.00;100729.41;5105138;28;20448;-72
2022/11/28 03:25:32;;;;;;;21.85;8.98;;;;;;;5.81;100.00;100734.78;5105092;28;19912;-71
2022/11/28 03:28:33;;;;;;;21.40;9.35;;;;;;;5.81;100.00;100729.53;5104468;28;20024;-71
2022/11/28 03:31:03;;;;;;;22.00;9.63;;;;;;;5.83;100.00;100736.59;5105054;28;20107;-71
2022/11/28 03:33:35;;;;;;;22.60;9.40;;;;;;;5.84;100.00;100735.75;5104133;28;20016;-71
2022/11/28 03:36:16;;;;;;;22.50;9.55;;;;;;;5.83;100.00;100743.59;5105730;28;20058;-71
2022/11/28 03:38:45;;;;;;;22.60;9.10;;;;;;;5.83;100.00;100736.59;5098671;28;20111;-71
2022/11/28 03:41:19;;;;;;;22.33;9.45;;;;;;;5.84;100.00;100729.59;5106314;28;20458;-72
2022/11/28 03:43:55;;;;;;;21.77;9.40;;;;;;;5.88;100.00;100729.72;5103713;28;20679;-71
2022/11/28 03:46:25;;;;;;;21.17;9.20;;;;;;;5.86;100.00;100726.16;5104391;28;20505;-71
2022/11/28 03:48:56;;;;;;;21.23;9.43;;;;;;;5.87;100.00;100738.44;5104188;28;20036;-71
2022/11/28 03:51:35;;;;;;;21.88;9.48;;;;;;;5.85;100.00;100732.25;5103389;28;20035;-71
2022/11/28 03:54:12;;;;;;;21.73;9.20;;;;;;;5.89;100.00;100734.09;5105447;28;20037;-71
2022/11/28 03:56:52;;;;;;;22.08;9.25;;;;;;;5.85;100.00;100740.13;5098943;28;20059;-72
2022/11/28 03:59:24;;;;;;;22.65;9.48;;;;;;;5.85;100.00;100737.50;5101251;28;20058;-71
2022/11/28 04:02:01;;;;;;;21.53;9.00;;;;;;;5.84;100.00;100730.50;5104630;28;20026;-71
2022/11/28 04:04:51;;;;;;;22.35;9.15;;;;;;;5.87;100.00;100737.56;5104613;28;20028;-71
2022/11/28 04:07:19;;;;;;;21.70;9.07;;;;;;;5.86;100.00;100741.03;5100464;28;20055;-71
2022/11/28 04:09:52;;;;;;;21.58;9.18;;;;;;;5.86;100.00;100741.03;5105321;28;20036;-71
2022/11/28 04:12:36;;;;;;;23.55;9.43;;;;;;;5.82;100.00;100737.44;5103467;28;20084;-72
2022/11/28 04:15:21;;;;;;;22.50;9.57;;;;;;;5.83;100.00;100733.97;5102874;28;20379;-71
2022/11/28 04:17:58;;;;;;;22.73;9.98;;;;;;;5.83;100.00;100739.22;5099002;28;20368;-71
2022/11/28 04:20:35;;;;;;;23.60;9.98;;;;;;;5.85;100.00;100729.63;5103981;28;20107;-71
2022/11/28 04:23:07;;;;;;;21.98;10.00;;;;;;;5.83;100.00;100730.47;5105001;28;20574;-70
2022/11/28 04:25:37;;;;;;;22.13;9.70;;;;;;;5.84;100.00;100729.59;5102534;27;20372;-72
2022/11/28 04:28:09;;;;;;;23.40;10.45;;;;;;;5.84;100.00;100748.84;5104976;28;20020;-71
2022/11/28 04:30:37;;;;;;;22.55;10.55;;;;;;;5.84;100.00;100743.63;5102330;28;20063;-79
2022/11/28 04:33:08;;;;;;;23.00;10.48;;;;;;;5.85;100.00;100736.63;5104845;28;20073;-79
2022/11/28 04:35:39;;;;;;;23.52;11.05;;;;;;;5.84;100.00;100742.72;5102080;28;20034;-79
2022/11/28 04:38:08;;;;;;;23.85;10.88;;;;;;;5.86;100.00;100739.28;5105322;28;20371;-80
2022/11/28 04:40:39;;;;;;;23.88;11.10;;;;;;;5.85;100.00;100734.88;5102312;28;20471;-80
2022/11/28 04:43:11;;;;;;;22.85;10.52;;;;;;;5.86;100.00;100736.66;5105045;28;20023;-81
2022/11/28 04:45:44;;;;;;;24.05;11.70;;;;;;;5.85;100.00;100739.25;5097600;28;20016;-80
2022/11/28 04:48:09;;;;;;;25.13;12.02;;;;;;;5.85;100.00;100740.13;5098023;28;20016;-80
2022/11/28 04:50:46;;;;;;;23.23;11.27;;;;;;;5.85;100.00;100729.63;5105340;28;20107;-81
2022/11/28 04:53:40;;;;;;;24.42;11.68;;;;;;;5.86;100.00;100730.53;5098213;28;20110;-81
2022/11/28 04:56:14;;;;;;;24.30;12.13;;;;;;;5.86;100.00;100741.91;5104907;28;20024;-81
2022/11/28 04:58:45;;;;;;;23.42;11.85;;;;;;;5.86;100.00;100735.78;5097818;28;20042;-81
2022/11/28 05:01:16;;;;;;;23.90;12.02;;;;;;;5.86;100.00;100739.28;5097725;28;20035;-81
2022/11/28 05:03:42;;;;;;;26.65;12.98;;;;;;;5.89;100.00;100738.47;5098324;28;20472;-81
2022/11/28 05:06:08;;;;;;;24.88;12.65;;;;;;;5.88;100.00;100740.22;5105219;28;20023;-81
2022/11/28 05:08:33;;;;;;;25.55;13.43;;;;;;;5.87;100.00;100735.81;5102066;28;20088;-81
2022/11/28 05:10:59;;;;;;;25.08;13.18;;;;;;;5.88;100.00;100744.53;5104023;28;20096;-77
2022/11/28 05:13:24;;;;;;;26.08;13.68;;;;;;;5.87;100.00;100738.44;5103303;28;20412;-81
2022/11/28 05:15:49;;;;;;;24.48;12.85;;;;;;;5.92;100.00;100747.25;5102390;28;20070;-81
2022/11/28 05:18:15;;;;;;;25.73;13.35;;;;;;;5.90;100.00;100750.75;5104303;28;20035;-71
2022/11/28 05:20:40;;;;;;;24.85;13.18;;;;;;;5.90;100.00;100750.75;5101314;28;20453;-71
2022/11/28 05:23:06;;;;;;;25.73;13.95;;;;;;;5.90;100.00;100751.59;5104520;28;20031;-71
2022/11/28 05:25:32;;;;;;;26.70;14.75;;;;;;;5.90;100.00;100749.00;5102103;28;20110;-70
2022/11/28 05:27:57;;;;;;;26.42;14.73;;;;;;;5.89;100.00;100747.22;5103436;28;20031;-70
2022/11/28 05:30:22;;;;;;;26.85;14.13;;;;;;;5.90;100.00;100754.22;5103079;28;20034;-71
2022/11/28 05:32:48;;;;;;;27.17;14.95;;;;;;;5.93;100.00;100751.66;5102137;28;20028;-70
2022/11/28 05:35:13;;;;;;;26.60;15.07;;;;;;;5.91;100.00;100744.63;5104265;28;20038;-74
2022/11/28 05:37:39;;;;;;;28.83;15.45;;;;;;;5.91;100.00;100750.78;5101267;28;20104;-71
2022/11/28 05:40:05;;;;;;;27.15;15.05;;;;;;;5.93;100.00;100759.53;5104385;28;20397;-70
2022/11/28 05:42:34;;;;;;;28.40;16.15;;;;;;;5.92;100.00;100751.63;5101836;28;20057;-70
2022/11/28 05:45:00;;;;;;;28.23;16.10;;;;;;;5.93;100.00;100758.66;5103576;28;20024;-70
2022/11/28 05:47:29;;;;;;;28.85;16.63;;;;;;;5.96;100.00;100763.09;5102940;28;20038;-71
2022/11/28 05:49:54;;;;;;;28.27;16.40;;;;;;;5.97;100.00;100762.22;5102697;28;20024;-70
2022/11/28 05:52:20;;;;;;;29.42;16.55;;;;;;;5.97;100.00;100764.84;5102041;28;20031;-71
2022/11/28 05:54:45;;;;;;;29.33;16.88;;;;;;;5.96;100.00;100757.84;5100256;28;20118;-71
2022/11/28 05:57:10;;;;;;;29.15;17.13;;;;;;;5.97;100.00;100759.59;5104529;28;20106;-71
2022/11/28 05:59:36;;;;;;;28.75;16.98;;;;;;;5.97;100.00;100755.31;5100995;28;20067;-70
2022/11/28 06:02:01;;;;;;;30.00;17.23;;;;;;;5.96;100.00;100752.63;5102380;28;20051;-70
2022/11/28 06:04:27;;;;;;;30.13;17.40;;;;;;;5.97;100.00;100754.34;5102469;28;20103;-70
2022/11/28 06:06:52;;;;;;;29.75;17.63;;;;;;;5.97;100.00;100755.31;5102198;28;20028;-71
2022/11/28 06:09:17;;;;;;;29.75;17.40;;;;;;;5.97;100.00;100756.97;5087952;28;20028;-80
2022/11/28 06:11:43;;;;;;;31.13;17.95;;;;;;;5.97;100.00;100754.34;5104707;28;20030;-80
2022/11/28 06:14:09;;;;;;;31.40;17.75;;;;;;;5.96;100.00;100753.50;5108243;27;20115;-80
2022/11/28 06:16:35;;;;;;;32.40;19.10;;;;;;;5.96;100.00;100758.72;5104713;28;20028;-80
2022/11/28 06:19:03;;;;;;;30.73;17.65;;;;;;;5.98;100.00;100756.19;5106504;28;20036;-77
2022/11/28 06:21:29;;;;;;;31.23;17.35;;;;;;;5.98;100.00;100761.44;5105917;28;20364;-80
2022/11/28 06:23:58;;;;;;;33.20;18.42;;;;;;;5.98;100.00;100767.53;5106174;28;20445;-79
2022/11/28 06:26:25;;;;;;;30.85;18.23;;;;;;;5.99;100.00;100768.44;5106416;28;20035;-77
2022/11/28 06:28:50;;;;;;;32.33;18.60;;;;;;;6.00;100.00;100770.19;5105679;28;20039;-79
2022/11/28 06:31:20;;;;;;;32.65;18.92;;;;;;;6.00;100.00;100775.44;5107202;27;20024;-79
2022/11/28 06:33:45;;;;;;;32.92;18.40;;;;;;;6.01;100.00;100774.59;5104606;28;20028;-79
2022/11/28 06:36:12;;;;;;;32.53;18.50;;;;;;;6.01;100.00;100771.97;5106569;28;20031;-79
2022/11/28 06:38:38;;;;;;;34.13;19.83;;;;;;;6.00;100.00;100771.09;5100005;28;20032;-78
2022/11/28 06:41:08;;;;;;;34.72;20.13;;;;;;;6.01;100.00;100771.97;5105873;28;20489;-79
2022/11/28 06:43:34;;;;;;;32.55;19.13;;;;;;;6.00;100.00;100770.19;5103605;27;20024;-67
2022/11/28 06:46:00;;;;;;;35.38;20.48;;;;;;;6.02;100.00;100782.50;5101234;28;20034;-68
2022/11/28 06:48:25;;;;;;;33.38;19.77;;;;;;;6.01;100.00;100766.72;5099975;28;20047;-65
2022/11/28 06:50:51;;;;;;;32.58;19.70;;;;;;;6.02;100.00;100769.38;5098779;28;20024;-65
2022/11/28 06:53:17;;;;;;;34.75;20.52;;;;;;;6.01;100.00;100770.22;5101166;28;20032;-67
2022/11/28 06:55:43;;;;;;;35.35;20.80;;;;;;;6.05;100.00;100771.19;5095816;28;20036;-64
2022/11/28 06:58:09;;;;;;;33.67;19.40;;;;;;;6.03;100.00;100778.13;5099712;28;20569;-67
2022/11/28 07:00:35;;;;;;;34.60;20.60;;;;;;;6.03;100.00;100775.50;5098851;28;20115;-68
2022/11/28 07:03:00;;;;;;;36.22;20.70;;;;;;;6.04;100.00;100778.19;5091127;28;20371;-65
2022/11/28 07:05:29;;;;;;;38.40;21.30;;;;;;;6.04;100.00;100772.94;5094317;28;20054;-66
2022/11/28 07:07:59;;;;;;;36.85;21.17;;;;;;;6.04;100.00;100767.72;5078421;28;20034;-65
2022/11/28 07:10:25;;;;;;;38.00;21.83;;;;;;;6.05;100.00;100779.06;5101849;28;20097;-69
2022/11/28 07:12:55;;;;;;;37.70;21.98;;;;;;;6.06;100.00;100781.72;5099875;28;20024;-71
2022/11/28 07:15:20;;;;;;;37.38;21.83;;;;;;;6.05;100.00;100779.06;5098462;28;20036;-70
2022/11/28 07:17:46;;;;;;;39.13;22.45;;;;;;;6.07;100.00;100782.59;5099866;28;20058;-71
2022/11/28 07:20:11;;;;;;;37.42;21.98;;;;;;;6.07;100.00;100788.75;5098907;28;20020;-69
2022/11/28 07:22:37;;;;;;;35.30;20.85;;;;;;;6.07;100.00;100785.22;5098367;28;20070;-69
2022/11/28 07:25:02;;;;;;;36.42;20.80;;;;;;;6.07;100.00;100785.22;5100486;28;20489;-66
2022/11/28 07:27:28;;;;;;;38.50;22.27;;;;;;;6.07;100.00;100788.75;5097625;28;20028;-67
2022/11/28 07:29:53;;;;;;;39.25;22.92;;;;;;;6.08;100.00;100784.38;5101776;28;20428;-66
2022/11/28 07:32:18;;;;;;;40.15;22.33;;;;;;;6.09;100.00;100786.16;5102628;28;20097;-67
2022/11/28 07:34:44;;;;;;;38.40;22.02;;;;;;;6.09;100.00;100791.41;5099030;28;20536;-65
2022/11/28 07:37:10;;;;;;;37.67;21.30;;;;;;;6.11;100.00;100801.06;5083791;28;20027;-65
2022/11/28 07:39:35;;;;;;;38.80;22.40;;;;;;;6.09;100.00;100796.66;5096062;28;20034;-64
2022/11/28 07:42:00;;;;;;;37.60;21.35;;;;;;;6.13;100.00;100802.84;5095025;28;20036;-69
2022/11/28 07:44:26;;;;;;;37.60;21.70;;;;;;;6.12;100.00;100801.97;5097215;28;20040;-68
2022/11/28 07:46:51;;;;;;;41.03;22.58;;;;;;;6.13;100.00;100805.47;5097010;28;20036;-65
2022/11/28 07:49:17;;;;;;;40.97;22.10;;;;;;;6.12;100.00;100807.22;5099564;28;20178;-66
2022/11/28 07:51:42;;;;;;;38.08;21.45;;;;;;;6.15;100.00;100803.78;5094393;28;20391;-64
2022/11/28 07:54:08;;;;;;;40.55;21.67;;;;;;;6.16;100.00;100808.16;5097438;28;20131;-66
2022/11/28 07:56:36;;;;;;;40.40;22.38;;;;;;;6.16;100.00;100810.78;5095919;28;20110;-65
2022/11/28 07:59:02;;;;;;;41.45;22.58;;;;;;;6.16;100.00;100814.31;5094654;28;20065;-65
2022/11/28 08:01:29;;;;;;;37.60;20.65;;;;;;;6.17;100.00;100823.94;5097045;28;20453;-65
2022/11/28 08:03:56;;;;;;;39.85;21.35;;;;;;;6.20;100.00;100826.63;5099698;28;20026;-65
2022/11/28 08:06:24;;;;;;;41.20;22.50;;;;;;;6.20;100.00;100829.25;5095786;28;20106;-66
2022/11/28 08:08:51;;;;;;;43.00;22.73;;;;;;;6.22;100.00;100827.56;5089611;28;20107;-65
2022/11/28 08:11:17;;;;;;;40.45;21.58;;;;;;;6.22;100.00;100819.69;5092206;28;20068;-64
2022/11/28 08:13:43;;;;;;;42.35;21.48;;;;;;;6.23;100.00;100820.56;5093518;28;20027;-64
2022/11/28 08:16:14;;;;;;;40.22;20.45;;;;;;;6.25;100.00;100821.50;5095436;28;20036;-64
2022/11/28 08:18:40;;;;;;;40.00;21.52;;;;;;;6.26;100.00;100824.16;5099258;28;20118;-66
2022/11/28 08:21:08;;;;;;;38.15;20.25;;;;;;;6.28;100.00;100829.44;5094124;28;20566;-65
2022/11/28 08:23:35;;;;;;;42.70;21.60;;;;;;;6.30;100.00;100826.84;5091603;28;20015;-68
2022/11/28 08:26:01;;;;;;;40.17;21.60;;;;;;;6.31;100.00;100828.63;5094042;28;20032;-67
2022/11/28 08:28:28;;;;;;;39.72;20.55;;;;;;;6.34;100.00;100833.94;5093710;28;20028;-67
2022/11/28 08:30:53;;;;;;;41.28;21.50;;;;;;;6.34;100.00;100826.06;5090845;28;20439;-68
2022/11/28 08:33:18;;;;;;;44.78;22.38;;;;;;;6.37;100.00;100824.38;5074275;28;20115;-69
2022/11/28 08:35:44;;;;;;;42.30;21.73;;;;;;;6.39;100.00;100829.66;5095584;28;20028;-69
2022/11/28 08:38:09;;;;;;;42.90;22.38;;;;;;;6.40;100.00;100832.31;5099613;28;20378;-78
2022/11/28 08:40:34;;;;;;;41.28;21.98;;;;;;;6.42;100.00;100834.97;5099138;28;20053;-78
2022/11/28 08:43:00;;;;;;;43.03;22.88;;;;;;;6.41;100.00;100839.34;5098045;28;20024;-73
2022/11/28 08:45:25;;;;;;;46.03;22.67;;;;;;;6.42;100.00;100842.84;5096000;28;20489;-76
2022/11/28 08:47:50;;;;;;;48.22;23.10;;;;;;;6.43;100.00;100842.00;5100829;28;20029;-77
2022/11/28 08:50:16;;;;;;;43.55;22.42;;;;;;;6.43;100.00;100842.00;5096843;28;20055;-74
2022/11/28 08:52:41;;;;;;;46.25;23.60;;;;;;;6.44;100.00;100843.78;5100127;28;20012;-71
2022/11/28 08:55:07;;;;;;;50.70;24.20;;;;;;;6.44;100.00;100838.53;5097776;28;20028;-77
2022/11/28 08:57:32;;;;;;;48.15;23.17;;;;;;;6.47;100.00;100837.72;5101104;28;20023;-78
2022/11/28 08:59:58;;;;;;;46.55;23.02;;;;;;;6.48;100.00;100836.84;5102226;28;20028;-77
2022/11/28 09:02:23;;;;;;;49.10;22.98;;;;;;;6.52;100.00;100838.69;5103782;28;20036;-74
2022/11/28 09:04:48;;;;;;;51.55;24.55;;;;;;;6.52;100.00;100836.06;5100835;28;20028;-78
2022/11/28 09:07:13;;;;;;;48.67;23.50;;;;;;;6.55;100.00;100844.00;5104466;28;20031;-79
2022/11/28 09:09:39;;;;;;;49.67;22.58;;;;;;;6.56;100.00;100844.03;5103053;28;20066;-78
2022/11/28 09:12:04;;;;;;;47.35;22.75;;;;;;;6.59;100.00;100844.09;5101268;28;20020;-76
2022/11/28 09:14:30;;;;;;;48.35;22.38;;;;;;;6.58;100.00;100834.47;5103640;28;20470;-78
2022/11/28 09:16:56;;;;;;;43.83;21.02;;;;;;;6.61;100.00;100844.13;5101800;28;20052;-75
2022/11/28 09:19:21;;;;;;;46.78;22.05;;;;;;;6.62;100.00;100841.53;5103859;28;20062;-72
2022/11/28 09:21:46;;;;;;;48.88;21.85;;;;;;;6.63;100.00;100853.81;5103156;28;20114;-72
2022/11/28 09:24:12;;;;;;;46.13;20.92;;;;;;;6.65;100.00;100860.84;5102267;28;20024;-77
2022/11/28 09:26:38;;;;;;;46.00;21.65;;;;;;;6.65;100.00;100856.47;5104588;28;20033;-78
2022/11/28 09:29:04;;;;;;;43.63;20.77;;;;;;;6.68;100.00;100859.16;5101215;28;20107;-78
2022/11/28 09:31:29;;;;;;;47.92;21.42;;;;;;;6.69;100.00;100863.56;5104382;28;20024;-78
2022/11/28 09:33:55;;;;;;;42.85;20.70;;;;;;;6.69;100.00;100860.94;5100844;28;20076;-77
2022/11/28 09:36:22;;;;;;;45.35;21.42;;;;;;;6.73;100.00;100860.16;5103279;28;20078;-75
2022/11/28 09:38:49;;;;;;;43.55;19.92;;;;;;;6.73;100.00;100856.66;5102978;28;20032;-78
2022/11/28 09:41:36;;;;;;;42.65;20.13;;;;;;;6.76;100.00;100854.09;5101724;28;20050;-77
2022/11/28 09:44:40;;;;;;;43.97;20.55;;;;;;;6.77;100.00;100856.75;5099815;28;20035;-69
2022/11/28 09:47:17;;;;;;;45.80;20.67;;;;;;;6.80;100.00;100862.06;5105466;28;20111;-68
2022/11/28 09:50:09;;;;;;;43.40;20.65;;;;;;;6.84;100.00;100868.25;5107351;28;20019;-67
2022/11/28 09:52:46;;;;;;;46.40;21.13;;;;;;;6.89;100.00;100858.72;5101491;28;20402;-70
2022/11/28 09:55:33;;;;;;;45.45;21.70;;;;;;;6.91;100.00;100859.63;5107380;28;20070;-68
2022/11/28 09:58:04;;;;;;;49.70;21.83;;;;;;;6.95;100.00;100868.47;5108195;28;20031;-70
2022/11/28 10:00:36;;;;;;;46.63;21.77;;;;;;;6.97;100.00;100864.13;5105078;27;20028;-70
2022/11/28 10:03:27;;;;;;;47.53;22.33;;;;;;;7.00;100.00;100871.19;5100923;28;20028;-72
2022/11/28 10:06:04;;;;;;;48.40;22.45;;;;;;;7.01;100.00;100863.31;5106304;28;20016;-67
2022/11/28 10:09:02;;;;;;;46.60;22.02;;;;;;;7.05;100.00;100874.78;5105294;28;20069;-71
2022/11/28 10:11:37;;;;;;;47.97;23.58;;;;;;;7.06;100.00;100863.41;5099871;28;20040;-69
2022/11/28 10:14:15;;;;;;;53.75;23.90;;;;;;;7.13;100.00;100860.03;5107055;28;20051;-67
2022/11/28 10:17:05;;;;;;;50.45;24.20;;;;;;;7.12;100.00;100863.50;5106505;28;20031;-68
2022/11/28 10:19:56;;;;;;;51.15;24.20;;;;;;;7.14;100.00;100862.69;5099402;28;20177;-67
2022/11/28 10:22:34;;;;;;;52.67;23.90;;;;;;;7.19;100.00;100860.16;5100722;28;20036;-68
2022/11/28 10:25:05;;;;;;;52.03;24.58;;;;;;;7.23;100.00;100858.47;5103040;28;20034;-69
2022/11/28 10:27:34;;;;;;;49.78;23.75;;;;;;;7.23;100.00;100861.97;5104140;28;20035;-68
2022/11/28 10:30:07;;;;;;;48.42;23.85;;;;;;;7.20;100.00;100867.19;5106866;28;20032;-68
2022/11/28 10:32:40;;;;;;;50.30;23.65;;;;;;;7.22;100.00;100868.09;5104812;27;20339;-69
2022/11/28 10:35:20;;;;;;;47.28;23.20;;;;;;;7.22;100.00;100860.19;5107118;28;20023;-69
2022/11/28 10:37:46;;;;;;;51.75;23.80;;;;;;;7.27;100.00;100866.44;5101909;28;20403;-68
2022/11/28 10:40:32;;;;;;;51.03;24.27;;;;;;;7.30;100.00;100869.13;5107728;28;20032;-68
2022/11/28 10:43:27;;;;;;;49.20;23.85;;;;;;;7.36;100.00;100862.22;5105273;28;20146;-68
2022/11/28 10:46:09;;;;;;;51.00;25.08;;;;;;;7.37;100.00;100864.88;5103720;28;20405;-68
2022/11/28 10:48:53;;;;;;;49.90;24.80;;;;;;;7.36;100.00;100868.34;5104136;28;20032;-68
2022/11/28 10:51:24;;;;;;;53.03;25.15;;;;;;;7.37;100.00;100879.75;5102374;28;20031;-68
2022/11/28 10:54:09;;;;;;;51.42;25.38;;;;;;;7.34;100.00;100875.34;5105937;28;20109;-68
2022/11/28 10:57:25;;;;;;;53.25;26.35;;;;;;;7.36;100.00;100876.25;5106889;28;20024;-68
2022/11/28 11:00:12;;;;;;;52.63;26.38;;;;;;;7.35;100.00;100882.34;5098389;28;20101;-68
2022/11/28 11:02:44;;;;;;;55.28;26.70;;;;;;;7.36;100.00;100878.00;5099865;28;20050;-68
2022/11/28 11:05:19;;;;;;;58.45;27.80;;;;;;;7.36;100.00;100881.50;5099937;28;20024;-68
2022/11/28 11:07:56;;;;;;;55.95;27.55;;;;;;;7.38;100.00;100881.53;5100849;28;20062;-69
2022/11/28 11:10:41;;;;;;;59.00;27.48;;;;;;;7.41;100.00;100886.84;5105720;28;20454;-69
2022/11/28 11:13:27;;;;;;;59.75;29.20;;;;;;;7.42;100.00;100878.09;5106884;28;20557;-69
2022/11/28 11:16:06;;;;;;;62.10;29.00;;;;;;;7.44;100.00;100871.09;5102856;28;20086;-70
2022/11/28 11:18:51;;;;;;;61.40;28.98;;;;;;;7.48;100.00;100867.69;5104268;27;20040;-68
2022/11/28 11:21:18;;;;;;;68.45;31.10;;;;;;;7.48;100.00;100872.94;5101257;28;20535;-68
2022/11/28 11:23:45;;;;;;;63.03;30.02;;;;;;;7.51;100.00;100867.72;5106818;28;20026;-69
2022/11/28 11:26:32;;;;;;;61.00;29.45;;;;;;;7.51;100.00;100873.00;5103414;28;20028;-69
2022/11/28 11:28:57;;;;;;;64.70;30.88;;;;;;;7.49;100.00;100870.34;5103951;28;20024;-69
2022/11/28 11:31:29;;;;;;;65.03;30.80;;;;;;;7.51;100.00;100873.00;5105070;28;20030;-70